Feldbach, Austria
Current Conditions -  °F | °C
As of 8:50 PM on Friday 24 Oct 2014 (Local Time) from LOWG Reporting Station
Broken Clouds Broken Clouds  
Wind Chill: 48°   Ceiling: 4500
Heat Index: 48°   Visibility: 6mi
Dew Point: 43°   Wind: 2mph
Humidity: 82%   Direction: NA
Pressure: 30.12"   Gusts: NA
Location:  46.96°N, 15.89°E
Report Text: LOWG 241850Z VRB02KT 9999 BKN045 09/06 Q1020 NOSIG
Loading
Personal Weather Stations






























Interactive Weather Map
Tropical Storm Tracking
New forecast layout! Learn more

10-Day Weather Forecast

Advertisements
Track Severe Weather on mobile